createdAt,value
2023-09-19T00:00:50.129Z,1.00
2023-09-19T00:03:18.096Z,1.15
2023-09-19T00:05:46.635Z,1.42
2023-09-19T00:08:16.832Z,1.33
2023-09-19T00:10:45.398Z,1.05
2023-09-19T00:13:16.740Z,1.23
2023-09-19T00:15:52.061Z,1.38
2023-09-19T00:18:23.750Z,1.10
2023-09-19T00:20:53.511Z,1.10
2023-09-19T00:23:21.414Z,1.00
2023-09-19T00:25:49.747Z,1.20
2023-09-19T00:28:18.390Z,1.00
2023-09-19T00:30:46.383Z,1.05
2023-09-19T00:33:17.893Z,1.50
2023-09-19T00:35:50.174Z,1.33
2023-09-19T00:38:18.373Z,1.40
2023-09-19T00:40:47.104Z,1.35
2023-09-19T00:43:14.101Z,1.40
2023-09-19T00:45:43.886Z,1.38
2023-09-19T00:48:11.306Z,1.80
2023-09-19T00:50:44.952Z,1.45
2023-09-19T00:53:19.845Z,1.70
2023-09-19T00:55:47.560Z,1.50
2023-09-19T00:58:14.559Z,1.52
2023-09-19T01:00:41.733Z,1.60
2023-09-19T01:03:08.824Z,1.77
2023-09-19T01:05:35.840Z,1.40
2023-09-19T01:08:03.219Z,1.63
2023-09-19T01:10:30.237Z,1.55
2023-09-19T01:13:20.882Z,1.38
2023-09-19T01:16:13.452Z,1.38
2023-09-19T01:18:54.441Z,1.40
2023-09-19T01:21:35.690Z,1.42
2023-09-19T01:24:41.571Z,1.42
2023-09-19T01:27:35.007Z,1.40
2023-09-19T01:30:23.707Z,1.60
2023-09-19T01:32:53.763Z,1.13
2023-09-19T01:35:20.803Z,1.40
2023-09-19T01:37:47.720Z,1.35
2023-09-19T01:40:20.705Z,1.55
2023-09-19T01:43:43.977Z,1.50
2023-09-19T01:46:31.650Z,1.33
2023-09-19T01:49:03.661Z,1.60
2023-09-19T01:52:07.730Z,1.52
2023-09-19T01:54:39.484Z,1.48
2023-09-19T01:57:16.021Z,1.80
2023-09-19T01:59:55.596Z,1.70
2023-09-19T02:02:24.037Z,1.60
2023-09-19T02:04:51.788Z,1.65
2023-09-19T02:07:18.845Z,1.80
2023-09-19T02:09:45.750Z,1.70
2023-09-19T02:12:12.693Z,1.50
2023-09-19T02:14:39.611Z,1.70
2023-09-19T02:17:08.438Z,1.60
2023-09-19T02:19:35.571Z,1.33
2023-09-19T02:22:08.889Z,1.65
2023-09-19T02:24:36.525Z,1.50
2023-09-19T02:27:05.534Z,1.55
2023-09-19T02:32:00.305Z,1.83
2023-09-19T02:34:27.798Z,1.92
2023-09-19T02:36:57.278Z,1.60
2023-09-19T02:39:25.135Z,1.73
2023-09-19T02:41:52.101Z,1.48
2023-09-19T02:44:20.794Z,1.70
2023-09-19T02:46:48.639Z,1.60
2023-09-19T02:49:15.914Z,1.73
2023-09-19T02:51:42.891Z,1.60
2023-09-19T02:54:10.008Z,1.60
2023-09-19T02:56:38.396Z,1.77
2023-09-19T02:59:05.621Z,1.65
2023-09-19T03:01:33.524Z,1.73
2023-09-19T03:04:00.788Z,1.53
2023-09-19T03:06:27.850Z,1.75
2023-09-19T03:08:54.865Z,1.75
2023-09-19T03:11:24.448Z,1.80
2023-09-19T03:13:54.771Z,2.05
2023-09-19T03:16:23.403Z,1.85
2023-09-19T03:18:50.560Z,1.77
2023-09-19T03:21:18.520Z,1.77
2023-09-19T03:23:48.124Z,2.00
2023-09-19T03:26:17.799Z,1.83
2023-09-19T03:28:44.952Z,1.67
2023-09-19T03:31:12.475Z,1.77
2023-09-19T03:33:40.541Z,1.67
2023-09-19T03:36:08.435Z,1.95
2023-09-19T03:38:35.775Z,1.58
2023-09-19T03:41:03.738Z,1.73
2023-09-19T03:43:30.833Z,1.90
2023-09-19T03:45:57.939Z,1.65
2023-09-19T03:48:25.191Z,1.70
2023-09-19T03:50:53.832Z,1.92
2023-09-19T03:53:20.825Z,1.88
2023-09-19T03:55:48.119Z,1.85
2023-09-19T03:58:15.185Z,1.75
2023-09-19T21:01:06.648Z,2.47
2023-09-19T21:03:37.062Z,2.53
2023-09-19T21:06:09.846Z,2.60
2023-09-19T21:08:37.024Z,2.60
2023-09-19T21:11:17.684Z,2.88
2023-09-19T21:13:46.195Z,3.00
2023-09-19T21:16:16.404Z,3.13
2023-09-19T21:18:45.064Z,2.70
2023-09-19T21:21:12.689Z,2.85
2023-09-19T21:23:40.939Z,2.72
2023-09-19T21:26:08.972Z,3.30
2023-09-19T21:28:36.262Z,3.27
2023-09-19T21:31:05.455Z,2.92
2023-09-19T21:33:39.413Z,2.80
2023-09-19T21:36:21.955Z,2.50
2023-09-19T21:38:49.509Z,2.60
2023-09-19T21:41:18.276Z,2.72
2023-09-19T21:43:46.288Z,2.72
2023-09-19T21:46:13.555Z,3.00
2023-09-19T21:48:41.820Z,3.00
2023-09-19T21:51:09.242Z,2.70
2023-09-19T21:53:37.341Z,2.90
2023-09-19T21:56:06.658Z,2.90
2023-09-19T21:58:36.982Z,2.58
2023-09-19T22:01:07.940Z,2.83
2023-09-19T22:03:37.749Z,2.70
2023-09-19T22:06:09.274Z,2.53
2023-09-19T22:08:37.311Z,2.75
2023-09-19T22:11:04.652Z,2.90
2023-09-19T22:13:32.238Z,2.97
2023-09-19T22:16:00.660Z,2.47
2023-09-19T22:18:29.157Z,2.63
2023-09-19T22:21:04.048Z,2.60
2023-09-19T22:23:37.119Z,2.80
2023-09-19T22:26:04.946Z,2.90
2023-09-19T22:28:36.414Z,2.13
2023-09-19T22:31:13.688Z,2.10
2023-09-19T22:33:41.794Z,2.70
2023-09-19T22:36:09.407Z,2.25
2023-09-19T22:38:36.345Z,2.30
2023-09-19T22:41:07.288Z,2.80
2023-09-19T22:43:35.622Z,2.67
2023-09-19T22:46:08.220Z,2.75
2023-09-19T22:48:35.312Z,2.45
2023-09-19T22:51:07.329Z,2.40
2023-09-19T22:53:36.972Z,2.45
2023-09-19T22:56:12.254Z,2.58
2023-09-19T22:58:43.556Z,2.50
2023-09-19T23:01:28.678Z,2.55
2023-09-19T23:04:11.552Z,2.55
2023-09-19T23:06:49.498Z,2.60
2023-09-19T23:09:24.589Z,2.70
2023-09-19T23:12:07.892Z,3.00
2023-09-19T23:14:40.244Z,3.20
2023-09-19T23:17:23.016Z,3.08
2023-09-19T23:19:51.052Z,2.95
2023-09-19T23:22:18.138Z,3.00
2023-09-19T23:24:51.374Z,2.60
2023-09-19T23:27:26.819Z,3.10
2023-09-19T23:29:56.563Z,2.60
2023-09-19T23:32:23.675Z,2.90
2023-09-19T23:34:50.962Z,3.00
2023-09-19T23:37:21.798Z,2.72
2023-09-19T23:39:48.978Z,3.10
2023-09-19T23:42:16.141Z,2.90
2023-09-19T23:44:43.534Z,2.72
2023-09-19T23:47:12.044Z,2.95
2023-09-19T23:49:42.702Z,2.47
2023-09-19T23:52:12.639Z,2.85
2023-09-19T23:54:41.902Z,2.72
2023-09-19T23:57:11.367Z,2.60
2023-09-19T23:59:44.146Z,2.85
